Dati Storici

Data ora Umidita' aria (%) Temperatura aria (°C) Rad globale (W/m²) Gonioanemometro (°) Tacoanemometro (m/s) Pioggia (mm)
20-06-2020 21:30 67.1 % 23.016 122.666 2.014 0 0
20-06-2020 21:20 66.7 % 23.103 173.75 1.068 0 0
20-06-2020 21:10 67.2 % 23.157 19.326 1.837 0 0
20-06-2020 21:00 67.1 % 23.231 100.969 0.682 0 0
20-06-2020 20:50 66.4 % 23.337 138.927 1.149 0 0
20-06-2020 20:40 66.6 % 23.32 182.724 0.329 0 0
20-06-2020 20:30 66.2 % 23.413 108.136 1.802 0 0
20-06-2020 20:20 68.9 % 23.426 91.322 0.681 0 0
20-06-2020 20:10 71.5 % 23.367 119.522 -0.024 0 0
20-06-2020 20:00 71.1 % 23.374 84.537 0.779 0 0
20-06-2020 19:50 68.8 % 23.844 157.246 0.381 0 0
20-06-2020 19:40 66.9 % 23.907 188.395 0.736 0 0
20-06-2020 19:30 65.7 % 23.828 151.37 1.259 0 0
20-06-2020 19:20 66.2 % 23.794 148.449 -0.027 0 0
20-06-2020 19:10 65 % 23.815 83.048 2.025 0 0
20-06-2020 19:00 63.5 % 24.151 107.953 1.05 0 0
20-06-2020 18:50 61.7 % 24.134 134.848 2.119 0 0
20-06-2020 18:40 60.6 % 24.178 105.681 0.984 0 0
20-06-2020 18:30 59.2 % 24.268 34.772 2.081 0 0
20-06-2020 18:20 57.2 % 24.377 87.289 2.22 0 0

I dati sono presentati in modo automatico a scopo informativo. In seguito a verifica i dati possono subire modifiche o essere invalidati e non riportati negli archivi definitivi.